Flight Track Log - Related Links

Times and Time Zones

All times are in EDT time to prevent confusion due to time zone crossing. See the N830W flight status page for this flight to view local times or setup timezone preferences in your user account.

Time Position Orientation Groundspeed Altitude Reporting Facility
EDT Latitude Longitude Course Direction KTS MPH feet Rate Location/Type
Fri 04:45:57 PM 42.8325 -75.4922 290° West 106 122 8,900  Level Boston Center
Fri 04:47:04 PM 42.8439 -75.5353 290° West 105 121 8,900  Level Boston Center
Fri 04:48:04 PM 42.8469 -75.5753 276° West 102 117 8,900  Level Boston Center
Fri 04:49:05 PM 42.8522 -75.6150 280° West 104 120 8,900 47 Level Boston Center
Fri 04:50:12 PM 42.8572 -75.6550 280° West 105 121 9,000 47 Climbing Boston Center
Fri 04:51:12 PM 42.8603 -75.6950 276° West 103 119 9,000 50 Level Boston Center
Fri 04:52:13 PM 42.8675 -75.7378 283° West 102 117 9,100  Climbing Boston Center
Fri 04:53:20 PM 42.8683 -75.7803 272° West 107 123 9,000 -99 Descending Boston Center
Fri 04:54:14 PM 42.8714 -75.8200 276° West 108 124 8,900 -62 Descending Boston Center
Fri 04:54:57 PM 42.8725 -75.8458 273° West 106 122 8,900 -61 Level Boston Center
Fri 04:55:52 PM 42.8756 -75.8828 276° West 106 122 8,800 -94 Descending Boston Center
Fri 04:57:04 PM 42.8803 -75.9311 278° West 106 122 8,700 -45 Descending Boston Center
Fri 04:58:05 PM 42.8833 -75.9711 276° West 105 121 8,700 -52 Level Boston Center
Fri 04:59:00 PM 42.8886 -76.0053 282° West 105 121 8,600 -149 Descending Boston Center
Fri 05:00:06 PM 42.8997 -76.0514 288° West 110 127 8,400 -142 Descending Boston Center
Fri 05:01:07 PM 42.9044 -76.0914 279° West 113 130 8,300 -52 Descending Boston Center
Fri 05:02:02 PM 42.9117 -76.1286 285° West 112 129 8,300 -52 Level Boston Center
Fri 05:03:02 PM 42.9144 -76.1714 275° West 110 127 8,200 -90 Descending Boston Center
Fri 05:04:15 PM 42.9256 -76.2175 288° West 110 127 8,100 -45 Descending Boston Center
Fri 05:05:16 PM 42.9344 -76.2606 286° West 109 125 8,100  Level Boston Center
Fri 05:06:17 PM 42.9414 -76.3006 283° West 110 127 8,100  Level Boston Center
Fri 05:07:17 PM 42.9486 -76.3381 285° West 108 124 8,100 52 Level Boston Center
Fri 05:08:12 PM 42.9556 -76.3781 283° West 109 125 8,200  Climbing Boston Center
Fri 05:09:12 PM 42.9583 -76.4181 275° West 108 124 8,100 -47 Descending Boston Center
Fri 05:10:19 PM 42.9628 -76.4639 278° West 110 127 8,100  Level Boston Center
Fri 05:11:14 PM 42.9700 -76.4983 286° West 108 124 8,100 -50 Level Boston Center
Fri 05:12:20 PM 42.9744 -76.5469 277° West 109 125 8,000 -47 Descending Boston Center
Fri 05:13:21 PM 42.9814 -76.5872 283° West 111 128 8,000  Level Boston Center
Fri 05:14:28 PM 42.9903 -76.6303 286° West 109 125 8,000 -59 Level Boston Center
Fri 05:15:03 PM 42.9917 -76.6517 275° West 108 124 7,900  Descending Cleveland Center
Fri 05:15:34 PM 42.9922 -76.6744 272° West 109 125 8,000 66 Climbing Cleveland Center
Fri 05:16:34 PM 42.9958 -76.7167 277° West 109 125 8,000 -52 Level Cleveland Center
Fri 05:17:29 PM 42.9992 -76.7561 277° West 111 128 7,900 -248 Descending Cleveland Center
Fri 05:18:35 PM 43.0028 -76.8044 276° West 120 138 7,500 -378 Descending Cleveland Center
Fri 05:19:36 PM 43.0067 -76.8525 276° West 125 144 7,100 -443 Descending Cleveland Center
Fri 05:20:37 PM 43.0164 -76.8972 287° West 127 146 6,600 -496 Descending Cleveland Center
Fri 05:21:37 PM 43.0242 -76.9478 282° West 134 154 6,100 -446 Descending Cleveland Center
Fri 05:22:38 PM 43.0342 -77.0042 284° West 138 159 5,700 -362 Descending Cleveland Center
Fri 05:23:33 PM 43.0417 -77.0436 285° West 137 158 5,400 -347 Descending Cleveland Center
Fri 05:24:39 PM 43.0497 -77.1028 281° West 134 154 5,000 -316 Descending Cleveland Center
Fri 05:25:46 PM 43.0556 -77.1564 278° West 136 157 4,700 -236 Descending Cleveland Center
Fri 05:26:46 PM 43.0550 -77.2106 269° West 135 155 4,500 -261 Descending Cleveland Center
Fri 05:27:41 PM 43.0503 -77.2589 262° West 141 162 4,200 -310 Descending Cleveland Center
Fri 05:28:42 PM 43.0497 -77.3131 269° West 140 161 3,900 -331 Descending Cleveland Center
Fri 05:29:48 PM 43.0492 -77.3728 269° West 143 165 3,500 -397 Descending Cleveland Center
Fri 05:30:43 PM 43.0464 -77.4183 265° West 143 165 3,100 -362 Descending Cleveland Center
Fri 05:31:44 PM 43.0519 -77.4750 278° West 144 166 2,800 -393 Descending Cleveland Center
Fri 05:32:45 PM 43.0578 -77.5314 278° West 139 160 2,300 -365 Descending Cleveland Center
Fri 05:33:39 PM 43.0653 -77.5794 282° West 139 160 2,100 -263 Descending Cleveland Center
Fri 05:34:39 PM 43.0725 -77.6217 283° West 106 122 1,800 -298 Descending Cleveland Center
Fri 05:35:40 PM 43.0858 -77.6522 301° West 84 97 1,500 -393 Descending Cleveland Center
Fri 05:36:41 PM 43.0989 -77.6772 306° West 79 91 1,000 -492 Descending Cleveland Center
Fri 05:38:00 PM 43.1167 -77.6667 289° West  Level FlightAware Approximate
Fri 05:45:00 PM 43.1191 -77.6719 289° West  Level Estimated

Login

Don't have an account? Register now (free) for customized features, flight alerts, and more!